Time;durP1;ratioP1;P1;durP2;ratioP2;P2;SDS_P1;SDS_P2;PMS_P1;PMS_P2;Temp;Humidity;BMP_temperature;BMP_pressure;BME280_temperature;BME280_humidity;BME280_pressure;Samples;Min_cycle;Max_cycle;Signal;HPM_P1;HPM_P2
2022/07/22 00:01:27;;;;;;;6.88;5.25;;;;;;;-141.48;100.00;69781.59;4968094;29;20118;-61
2022/07/22 00:03:58;;;;;;;10.75;7.22;;;;;;;-141.48;100.00;69781.59;4967581;29;20494;-61
2022/07/22 00:06:28;;;;;;;12.82;6.68;;;;;;;-141.48;100.00;69781.59;4967948;29;20023;-61
2022/07/22 00:08:59;;;;;;;14.45;6.90;;;;;;;-141.48;100.00;69781.59;4967926;29;20023;-61
2022/07/22 00:11:29;;;;;;;9.88;6.78;;;;;;;-141.48;100.00;69781.59;4968145;29;20061;-61
2022/07/22 00:14:00;;;;;;;6.60;5.55;;;;;;;-141.48;100.00;69781.59;4967491;29;20039;-61
2022/07/22 00:16:30;;;;;;;7.35;6.68;;;;;;;-141.48;100.00;69781.59;4951370;29;20023;-61
2022/07/22 00:19:01;;;;;;;11.07;5.57;;;;;;;-141.48;100.00;69781.59;4969475;29;20030;-61
2022/07/22 00:21:31;;;;;;;7.78;7.05;;;;;;;-141.48;100.00;69781.59;4971887;29;20034;-61
2022/07/22 00:24:02;;;;;;;7.78;6.60;;;;;;;-141.48;100.00;69781.59;4971344;29;20046;-61
2022/07/22 00:26:33;;;;;;;9.20;6.20;;;;;;;-141.48;100.00;69781.59;4971713;29;20050;-61
2022/07/22 00:29:03;;;;;;;9.25;7.38;;;;;;;-141.48;100.00;69781.59;4955864;29;20087;-61
2022/07/22 00:31:33;;;;;;;6.72;6.07;;;;;;;-141.48;100.00;69781.59;4972024;29;20035;-61
2022/07/22 00:34:04;;;;;;;6.70;6.30;;;;;;;-141.48;100.00;69781.59;4971545;29;20068;-61
2022/07/22 00:36:34;;;;;;;6.25;5.70;;;;;;;-141.48;100.00;69781.59;4971685;29;20027;-61
2022/07/22 00:39:05;;;;;;;5.90;5.50;;;;;;;-141.48;100.00;69781.59;4971893;29;20066;-61
2022/07/22 00:41:35;;;;;;;8.52;6.60;;;;;;;-141.48;100.00;69781.59;4971769;29;20031;-61
2022/07/22 00:44:08;;;;;;;7.25;6.63;;;;;;;-141.48;100.00;69781.59;4940229;29;20483;-61
2022/07/22 00:46:39;;;;;;;6.57;6.18;;;;;;;-141.48;100.00;69781.59;4971667;29;20027;-61
2022/07/22 00:49:09;;;;;;;11.75;7.35;;;;;;;-141.48;100.00;69781.59;4971659;29;20041;-61
2022/07/22 00:51:40;;;;;;;7.10;5.72;;;;;;;-141.48;100.00;69781.59;4971753;29;20421;-61
2022/07/22 00:54:11;;;;;;;8.52;7.93;;;;;;;-141.48;100.00;69781.59;4954861;29;20026;-62
2022/07/22 00:56:42;;;;;;;7.55;5.55;;;;;;;-141.48;100.00;69781.59;4971316;29;20041;-62
2022/07/22 00:59:12;;;;;;;12.77;7.53;;;;;;;-141.48;100.00;69781.59;4971150;29;20035;-61
2022/07/22 01:01:43;;;;;;;8.20;7.30;;;;;;;-141.48;100.00;69781.59;4971413;29;20042;-62
2022/07/22 01:04:14;;;;;;;5.97;5.57;;;;;;;-141.48;100.00;69781.59;4971201;29;20383;-62
2022/07/22 01:06:44;;;;;;;6.70;6.00;;;;;;;-141.48;100.00;69781.59;4971251;29;20511;-62
2022/07/22 01:09:15;;;;;;;8.48;7.65;;;;;;;-141.48;100.00;69781.59;4954579;29;20468;-62
2022/07/22 01:11:46;;;;;;;13.75;7.63;;;;;;;-141.48;100.00;69781.59;4970961;29;20033;-62
2022/07/22 01:14:16;;;;;;;12.48;8.15;;;;;;;-141.48;100.00;69781.59;4954263;29;20111;-62
2022/07/22 01:16:47;;;;;;;9.90;8.63;;;;;;;-141.48;100.00;69781.59;4954625;29;20035;-62
2022/07/22 01:19:17;;;;;;;8.98;8.20;;;;;;;-141.48;100.00;69781.59;4971015;29;20031;-62
2022/07/22 01:21:48;;;;;;;16.80;8.02;;;;;;;-141.48;100.00;69781.59;4970726;29;20038;-62
2022/07/22 01:24:18;;;;;;;11.23;7.63;;;;;;;-141.48;100.00;69781.59;4970286;29;20030;-62
2022/07/22 01:26:49;;;;;;;8.18;7.68;;;;;;;-141.48;100.00;69781.59;4971122;29;20054;-62
2022/07/22 01:29:19;;;;;;;9.00;8.15;;;;;;;-141.48;100.00;69781.59;4954515;29;20046;-62
2022/07/22 01:31:50;;;;;;;10.73;8.70;;;;;;;-141.48;100.00;69781.59;4969695;29;20030;-62
2022/07/22 01:34:20;;;;;;;9.95;9.07;;;;;;;-141.48;100.00;69781.59;4970522;29;20034;-62
2022/07/22 01:36:50;;;;;;;10.50;8.38;;;;;;;-141.48;100.00;69781.59;4970715;29;20106;-62
2022/07/22 01:39:21;;;;;;;9.65;8.68;;;;;;;-141.48;100.00;69781.59;4954089;29;20090;-62
2022/07/22 01:41:51;;;;;;;8.82;7.68;;;;;;;-141.48;100.00;69781.59;4970342;29;20042;-62
2022/07/22 01:44:22;;;;;;;13.63;7.82;;;;;;;-141.48;100.00;69781.59;4970172;29;20031;-62
2022/07/22 01:46:53;;;;;;;13.90;8.70;;;;;;;-141.48;100.00;69781.59;4970587;29;20408;-63
2022/07/22 01:49:24;;;;;;;9.75;9.05;;;;;;;-141.48;100.00;69781.59;4970045;29;20043;-62
2022/07/22 01:51:55;;;;;;;7.55;6.85;;;;;;;-141.48;100.00;69781.59;4970155;29;20035;-62
2022/07/22 01:54:25;;;;;;;11.10;8.25;;;;;;;-141.48;100.00;69781.59;4969819;29;20137;-62
2022/07/22 01:56:55;;;;;;;7.03;6.57;;;;;;;-141.48;100.00;69781.59;4970058;29;20041;-62
2022/07/22 01:59:26;;;;;;;11.48;7.90;;;;;;;-141.48;100.00;69781.59;4970116;29;20030;-62
2022/07/22 02:01:56;;;;;;;9.60;8.27;;;;;;;-141.48;100.00;69781.59;4969922;29;20047;-62
2022/07/22 02:04:27;;;;;;;9.23;7.97;;;;;;;-141.48;100.00;69781.59;4970050;29;20060;-62
2022/07/22 02:06:57;;;;;;;18.27;7.90;;;;;;;-141.48;100.00;69781.59;4969851;29;20046;-61
2022/07/22 02:09:27;;;;;;;9.10;8.45;;;;;;;-141.48;100.00;69781.59;4969924;29;20396;-62
2022/07/22 02:11:58;;;;;;;7.68;7.10;;;;;;;-141.48;100.00;69781.59;4954016;29;20031;-62
2022/07/22 02:14:28;;;;;;;9.02;8.30;;;;;;;-141.48;100.00;69781.59;4969642;29;20031;-62
2022/07/22 02:16:59;;;;;;;12.43;8.68;;;;;;;-141.48;100.00;69781.59;4953498;29;20373;-62
2022/07/22 02:19:29;;;;;;;12.40;8.48;;;;;;;-141.48;100.00;69781.59;4969794;29;20114;-62
2022/07/22 02:21:59;;;;;;;16.65;9.40;;;;;;;-141.48;100.00;69781.59;4970005;29;20046;-62
2022/07/22 02:24:30;;;;;;;10.38;8.95;;;;;;;-141.48;100.00;69781.59;4969346;29;20030;-62
2022/07/22 02:27:01;;;;;;;10.07;8.38;;;;;;;-141.48;100.00;69781.59;4969465;29;20034;-62
2022/07/22 02:29:32;;;;;;;13.43;8.55;;;;;;;-141.48;100.00;69781.59;4969660;29;20046;-62
2022/07/22 02:32:03;;;;;;;12.45;9.70;;;;;;;-141.48;100.00;69781.59;4969562;29;20034;-62
2022/07/22 02:34:34;;;;;;;10.75;8.40;;;;;;;-141.48;100.00;69781.59;4969275;29;20473;-62
2022/07/22 02:37:04;;;;;;;9.63;9.02;;;;;;;-141.48;100.00;69781.59;4969516;29;20033;-62
2022/07/22 02:39:34;;;;;;;9.93;7.97;;;;;;;-141.48;100.00;69781.59;4969701;29;20130;-62
2022/07/22 02:42:05;;;;;;;10.45;9.75;;;;;;;-141.48;100.00;69781.59;4969433;29;20031;-62
2022/07/22 02:44:35;;;;;;;9.00;8.15;;;;;;;-141.48;100.00;69781.59;4969115;29;20076;-62
2022/07/22 02:47:06;;;;;;;9.15;8.55;;;;;;;-141.48;100.00;69781.59;4953440;29;20051;-62
2022/07/22 02:49:36;;;;;;;10.68;9.18;;;;;;;-141.48;100.00;69781.59;4968914;29;20057;-62
2022/07/22 02:52:06;;;;;;;35.45;10.75;;;;;;;-141.48;100.00;69781.59;4969174;29;20034;-62
2022/07/22 02:54:37;;;;;;;11.38;7.68;;;;;;;-141.48;100.00;69781.59;4968805;29;20079;-62
2022/07/22 02:57:07;;;;;;;9.75;8.90;;;;;;;-141.48;100.00;69781.59;4952777;29;20039;-62
2022/07/22 02:59:37;;;;;;;10.07;9.32;;;;;;;-141.48;100.00;69781.59;4969103;29;20034;-62
2022/07/22 03:02:08;;;;;;;11.07;9.77;;;;;;;-141.48;100.00;69781.59;4968741;29;20031;-62
2022/07/22 03:04:38;;;;;;;12.65;9.75;;;;;;;-141.48;100.00;69781.59;4968829;29;20023;-62
2022/07/22 03:07:09;;;;;;;10.32;9.38;;;;;;;-141.48;100.00;69781.59;4969158;29;20042;-62
2022/07/22 03:09:39;;;;;;;17.33;10.00;;;;;;;-141.48;100.00;69781.59;4969115;29;20444;-61
2022/07/22 03:12:10;;;;;;;10.15;9.45;;;;;;;-141.48;100.00;69781.59;4969285;29;20106;-61
2022/07/22 03:14:40;;;;;;;10.02;9.00;;;;;;;-141.48;100.00;69781.59;4968902;29;20033;-62
2022/07/22 03:17:10;;;;;;;9.80;8.88;;;;;;;-141.48;100.00;69781.59;4969206;29;20031;-61
2022/07/22 03:19:41;;;;;;;12.80;9.68;;;;;;;-141.48;100.00;69781.59;4968840;29;20030;-61
2022/07/22 03:22:11;;;;;;;8.85;8.15;;;;;;;-141.48;100.00;69781.59;4968914;29;20057;-61
2022/07/22 03:24:42;;;;;;;10.20;9.15;;;;;;;-141.48;100.00;69781.59;4968489;29;20101;-62
2022/07/22 03:27:12;;;;;;;16.20;10.02;;;;;;;-141.48;100.00;69781.59;4968582;29;20478;-62
2022/07/22 03:29:42;;;;;;;17.45;10.05;;;;;;;-141.48;100.00;69781.59;4968680;29;20031;-62
2022/07/22 03:32:13;;;;;;;10.27;9.43;;;;;;;-141.48;100.00;69781.59;4968857;29;20023;-61
2022/07/22 03:34:44;;;;;;;9.48;8.65;;;;;;;-141.48;100.00;69781.59;4968499;29;20134;-61
2022/07/22 03:37:14;;;;;;;13.98;7.63;;;;;;;-141.48;100.00;69781.59;4968530;29;20553;-61
2022/07/22 03:39:45;;;;;;;7.85;7.25;;;;;;;-141.48;100.00;69781.59;4968414;29;20026;-61
2022/07/22 03:42:15;;;;;;;10.93;9.88;;;;;;;-141.48;100.00;69781.59;4968616;29;20054;-63
2022/07/22 03:44:46;;;;;;;8.77;8.07;;;;;;;-141.48;100.00;69781.59;4968459;29;20083;-62
2022/07/22 03:47:19;;;;;;;9.80;9.02;;;;;;;-141.48;100.00;69781.59;4968847;29;20069;-61
2022/07/22 03:49:50;;;;;;;12.52;10.93;;;;;;;-141.48;100.00;69781.59;4968249;29;20037;-61
2022/07/22 03:52:20;;;;;;;8.52;7.93;;;;;;;-141.48;100.00;69781.59;4968214;29;20042;-61
2022/07/22 03:54:51;;;;;;;11.88;10.00;;;;;;;-141.48;100.00;69781.59;4967602;29;20136;-63
2022/07/22 03:57:21;;;;;;;9.70;8.05;;;;;;;-141.48;100.00;69781.59;4968136;29;20077;-64
2022/07/22 03:59:52;;;;;;;9.40;8.65;;;;;;;-141.48;100.00;69781.59;4968269;29;20046;-63
2022/07/22 04:02:22;;;;;;;14.57;10.13;;;;;;;-141.48;100.00;69781.59;4967918;29;20061;-63
2022/07/22 04:04:52;;;;;;;8.43;7.65;;;;;;;-141.48;100.00;69781.59;4967420;29;20532;-61
2022/07/22 04:07:23;;;;;;;10.63;9.05;;;;;;;-141.48;100.00;69781.59;4968173;29;20039;-63
2022/07/22 04:10:04;;;;;;;9.00;8.30;;;;;;;-141.48;100.00;69781.59;4967987;29;20800;-63
2022/07/22 04:12:40;;;;;;;9.07;8.38;;;;;;;-141.48;100.00;69781.59;4968135;29;20485;-63
2022/07/22 04:15:10;;;;;;;12.30;8.75;;;;;;;-141.48;100.00;69781.59;4967380;29;20504;-63
2022/07/22 04:17:41;;;;;;;9.02;8.15;;;;;;;-141.48;100.00;69781.59;4967791;29;20121;-63
2022/07/22 04:20:11;;;;;;;9.63;8.82;;;;;;;-141.48;100.00;69781.59;4967894;29;20027;-63
2022/07/22 04:22:42;;;;;;;14.82;8.13;;;;;;;-141.48;100.00;69781.59;4967889;29;20079;-63
2022/07/22 04:25:12;;;;;;;9.00;8.07;;;;;;;-141.48;100.00;69781.59;4967442;29;20030;-63
2022/07/22 04:27:43;;;;;;;10.55;9.43;;;;;;;-141.48;100.00;69781.59;4967578;29;20153;-63
2022/07/22 04:30:13;;;;;;;8.38;7.75;;;;;;;-141.48;100.00;69781.59;4968219;29;20062;-63
2022/07/22 04:32:43;;;;;;;8.40;7.50;;;;;;;-141.48;100.00;69781.59;4968023;29;20038;-63
2022/07/22 04:35:14;;;;;;;7.07;6.50;;;;;;;-141.48;100.00;69781.59;4967569;29;20031;-63
2022/07/22 04:37:44;;;;;;;8.68;7.90;;;;;;;-141.48;100.00;69781.59;4967920;29;20193;-63
2022/07/22 04:40:15;;;;;;;9.15;8.13;;;;;;;-141.48;100.00;69781.59;4967644;29;20117;-63
2022/07/22 04:42:45;;;;;;;9.23;8.32;;;;;;;-141.48;100.00;69781.59;4967925;29;20039;-63
2022/07/22 04:45:15;;;;;;;8.55;7.95;;;;;;;-141.48;100.00;69781.59;4967456;29;20115;-63
2022/07/22 04:47:46;;;;;;;9.85;8.13;;;;;;;-141.48;100.00;69781.59;4967629;29;20031;-63
2022/07/22 04:50:16;;;;;;;8.95;8.15;;;;;;;-141.48;100.00;69781.59;4981957;24;20054;-68
2022/07/22 04:52:47;;;;;;;6.90;6.45;;;;;;;-141.48;100.00;69781.59;4969222;29;20095;-68
2022/07/22 04:55:17;;;;;;;6.07;5.60;;;;;;;-141.48;100.00;69781.59;4968939;29;20109;-67
2022/07/22 04:57:47;;;;;;;9.00;8.30;;;;;;;-141.48;100.00;69781.59;4969074;29;20031;-68
2022/07/22 05:00:18;;;;;;;8.48;7.78;;;;;;;-141.48;100.00;69781.59;4968951;29;20488;-68
2022/07/22 05:02:48;;;;;;;9.68;8.25;;;;;;;-141.48;100.00;69781.59;4969086;29;20049;-67
2022/07/22 05:05:19;;;;;;;10.38;9.48;;;;;;;-141.48;100.00;69781.59;4970493;29;20025;-70
2022/07/22 05:07:49;;;;;;;9.75;8.82;;;;;;;-141.48;100.00;69781.59;4972427;29;20079;-68
2022/07/22 05:10:20;;;;;;;10.57;9.65;;;;;;;-141.48;100.00;69781.59;4972565;29;20532;-67
2022/07/22 05:12:50;;;;;;;10.35;9.43;;;;;;;-141.48;100.00;69781.59;4972534;29;20054;-67
2022/07/22 05:15:21;;;;;;;11.15;8.60;;;;;;;-141.48;100.00;69781.59;4972071;29;20035;-68
2022/07/22 05:17:51;;;;;;;10.75;9.95;;;;;;;-141.48;100.00;69781.59;4972398;29;20472;-68
2022/07/22 05:20:22;;;;;;;10.07;9.10;;;;;;;-141.48;100.00;69781.59;4972309;29;20038;-68
2022/07/22 05:22:52;;;;;;;9.48;8.25;;;;;;;-141.48;100.00;69781.59;4955861;29;20039;-68
2022/07/22 05:25:23;;;;;;;17.67;11.23;;;;;;;-141.48;100.00;69781.59;4971884;29;20027;-68
2022/07/22 05:27:55;;;;;;;10.18;7.90;;;;;;;-141.48;100.00;69781.59;4972327;29;20096;-68
2022/07/22 05:30:25;;;;;;;9.32;8.68;;;;;;;-141.48;100.00;69781.59;4972188;29;20066;-68
2022/07/22 05:32:56;;;;;;;9.43;8.65;;;;;;;-141.48;100.00;69781.59;4971886;29;20487;-67
2022/07/22 05:35:27;;;;;;;9.98;9.18;;;;;;;-141.48;100.00;69781.59;4955185;29;20039;-68
2022/07/22 05:37:57;;;;;;;12.40;11.45;;;;;;;-141.48;100.00;69781.59;4972017;29;20025;-68
2022/07/22 05:40:28;;;;;;;11.82;10.68;;;;;;;-141.48;100.00;69781.59;4971844;29;20035;-68
2022/07/22 05:42:59;;;;;;;11.25;10.45;;;;;;;-141.48;100.00;69781.59;4972121;29;20042;-69
2022/07/22 05:45:29;;;;;;;12.48;9.55;;;;;;;-141.48;100.00;69781.59;4971388;29;20031;-68
2022/07/22 05:48:00;;;;;;;11.77;10.73;;;;;;;-141.48;100.00;69781.59;4971636;29;20042;-69
2022/07/22 05:50:31;;;;;;;11.63;10.70;;;;;;;-141.48;100.00;69781.59;4971627;29;20035;-67
2022/07/22 05:53:02;;;;;;;11.48;10.45;;;;;;;-141.48;100.00;69781.59;4971898;29;20062;-67
2022/07/22 05:55:33;;;;;;;17.80;10.35;;;;;;;-141.48;100.00;69781.59;4971418;29;20031;-67
2022/07/22 05:58:03;;;;;;;19.02;11.32;;;;;;;-141.48;100.00;69781.59;4971597;29;20026;-67
2022/07/22 06:00:34;;;;;;;12.35;11.25;;;;;;;-141.48;100.00;69781.59;4971484;29;20470;-67
2022/07/22 06:03:05;;;;;;;13.82;11.18;;;;;;;-141.48;100.00;69781.59;4971591;29;20022;-68
2022/07/22 06:05:35;;;;;;;17.35;11.55;;;;;;;-141.48;100.00;69781.59;4971258;29;20038;-68
2022/07/22 06:08:06;;;;;;;11.50;10.57;;;;;;;-141.48;100.00;69781.59;4971599;29;20026;-68
2022/07/22 06:10:36;;;;;;;15.75;12.30;;;;;;;-141.48;100.00;69781.59;4971215;29;20031;-68
2022/07/22 06:13:07;;;;;;;12.00;10.98;;;;;;;-141.48;100.00;69781.59;4971581;29;20034;-67
2022/07/22 06:15:37;;;;;;;13.63;10.48;;;;;;;-141.48;100.00;69781.59;4971234;29;20092;-67
2022/07/22 06:18:07;;;;;;;10.35;9.48;;;;;;;-141.48;100.00;69781.59;4970709;29;20031;-67
2022/07/22 06:20:38;;;;;;;12.00;10.50;;;;;;;-141.48;100.00;69781.59;4971236;29;20035;-67
2022/07/22 06:23:08;;;;;;;12.73;9.10;;;;;;;-141.48;100.00;69781.59;4954897;29;20035;-67
2022/07/22 06:25:39;;;;;;;10.75;9.75;;;;;;;-141.48;100.00;69781.59;4970888;29;20027;-67
2022/07/22 06:28:11;;;;;;;10.40;9.48;;;;;;;-141.48;100.00;69781.59;4971189;29;20062;-68
2022/07/22 06:30:41;;;;;;;10.00;8.48;;;;;;;-141.48;100.00;69781.59;4971149;29;20076;-67
2022/07/22 06:33:12;;;;;;;11.32;9.65;;;;;;;-141.48;100.00;69781.59;4971062;29;20218;-68
2022/07/22 06:35:42;;;;;;;7.93;6.60;;;;;;;-141.48;100.00;69781.59;4970730;29;20087;-68
2022/07/22 06:38:13;;;;;;;6.80;6.20;;;;;;;-141.48;100.00;69781.59;4971297;29;20071;-67
2022/07/22 06:40:43;;;;;;;6.97;6.28;;;;;;;-141.48;100.00;69781.59;4970820;29;20058;-67
2022/07/22 06:43:13;;;;;;;7.30;6.75;;;;;;;-141.48;100.00;69781.59;4970762;29;20026;-66
2022/07/22 06:45:44;;;;;;;6.80;6.15;;;;;;;-141.48;100.00;69781.59;4970718;29;20026;-68
2022/07/22 06:48:14;;;;;;;9.77;7.68;;;;;;;-141.48;100.00;69781.59;4970861;29;20029;-67
2022/07/22 06:50:45;;;;;;;6.90;5.68;;;;;;;-141.48;100.00;69781.59;4970726;29;20038;-66
2022/07/22 06:53:15;;;;;;;7.07;5.18;;;;;;;-141.48;100.00;69781.59;4970970;29;20109;-65
2022/07/22 06:55:45;;;;;;;8.52;5.75;;;;;;;-141.48;100.00;69781.59;4970318;29;20137;-66
2022/07/22 06:58:16;;;;;;;7.97;4.57;;;;;;;-141.48;100.00;69781.59;4970523;29;20030;-66
2022/07/22 07:00:46;;;;;;;8.95;4.68;;;;;;;-141.48;100.00;69781.59;4970449;29;20030;-67
2022/07/22 07:03:17;;;;;;;9.77;5.53;;;;;;;-141.48;100.00;69781.59;4970458;29;20085;-67
2022/07/22 07:05:48;;;;;;;3.88;3.67;;;;;;;-141.48;100.00;69781.59;4954289;29;20050;-67
2022/07/22 07:08:18;;;;;;;6.07;4.03;;;;;;;-141.48;100.00;69781.59;4970245;29;20041;-67
2022/07/22 07:10:49;;;;;;;8.15;6.28;;;;;;;-141.48;100.00;69781.59;4970223;29;20121;-67
2022/07/22 07:13:19;;;;;;;4.68;4.20;;;;;;;-141.48;100.00;69781.59;4970163;29;20031;-66
2022/07/22 07:15:49;;;;;;;6.88;4.38;;;;;;;-141.48;100.00;69781.59;4970305;29;20037;-67
2022/07/22 07:18:20;;;;;;;5.15;4.82;;;;;;;-141.48;100.00;69781.59;4970248;29;20568;-67
2022/07/22 07:20:50;;;;;;;6.18;4.35;;;;;;;-141.48;100.00;69781.59;4969578;29;20079;-67
2022/07/22 07:23:21;;;;;;;8.02;5.38;;;;;;;-141.48;100.00;69781.59;4969746;29;20607;-66
2022/07/22 07:25:52;;;;;;;5.25;4.85;;;;;;;-141.48;100.00;69781.59;4969558;29;20069;-65
2022/07/22 07:28:22;;;;;;;5.88;5.38;;;;;;;-141.48;100.00;69781.59;4952766;29;20055;-65
2022/07/22 07:30:53;;;;;;;6.15;4.82;;;;;;;-141.48;100.00;69781.59;4969223;29;20039;-66
2022/07/22 07:33:24;;;;;;;7.53;6.35;;;;;;;-141.48;100.00;69781.59;4969241;29;20106;-65
2022/07/22 07:35:54;;;;;;;6.55;6.07;;;;;;;-141.48;100.00;69781.59;4969203;29;20031;-66
2022/07/22 07:38:25;;;;;;;5.00;4.70;;;;;;;-141.48;100.00;69781.59;4969468;29;20595;-67
2022/07/22 07:40:55;;;;;;;6.10;5.55;;;;;;;-141.48;100.00;69781.59;4969331;29;20416;-66
2022/07/22 07:43:26;;;;;;;7.93;6.25;;;;;;;-141.48;100.00;69781.59;4969110;29;20030;-65
2022/07/22 07:45:56;;;;;;;8.60;6.20;;;;;;;-141.48;100.00;69781.59;4952804;29;20030;-65
2022/07/22 07:48:26;;;;;;;5.30;4.90;;;;;;;-141.48;100.00;69781.59;4969125;29;20086;-65
2022/07/22 07:50:57;;;;;;;8.98;5.15;;;;;;;-141.48;100.00;69781.59;4968888;29;20419;-66
2022/07/22 07:53:27;;;;;;;5.85;5.43;;;;;;;-141.48;100.00;69781.59;4968934;29;20030;-67
2022/07/22 07:55:58;;;;;;;6.40;5.90;;;;;;;-141.48;100.00;69781.59;4969202;29;20030;-67
2022/07/22 07:58:29;;;;;;;5.35;5.07;;;;;;;-141.48;100.00;69781.59;4969257;29;20050;-68
2022/07/22 08:00:59;;;;;;;5.90;5.30;;;;;;;-141.48;100.00;69781.59;4968808;29;20030;-65
2022/07/22 08:03:30;;;;;;;5.05;4.68;;;;;;;-141.48;100.00;69781.59;4968503;29;20381;-66
2022/07/22 08:06:00;;;;;;;5.57;5.20;;;;;;;-141.48;100.00;69781.59;4968768;29;20473;-66
2022/07/22 08:08:31;;;;;;;4.57;4.18;;;;;;;-141.48;100.00;69781.59;4952748;29;20398;-66
2022/07/22 08:11:01;;;;;;;6.85;6.28;;;;;;;-141.48;100.00;69781.59;4952622;29;20027;-66
2022/07/22 08:13:32;;;;;;;4.43;4.22;;;;;;;-141.48;100.00;69781.59;4968714;29;20447;-63
2022/07/22 08:16:02;;;;;;;6.00;5.40;;;;;;;-141.48;100.00;69781.59;4968852;29;20035;-64
2022/07/22 08:18:33;;;;;;;5.07;4.75;;;;;;;-141.48;100.00;69781.59;4969352;29;20138;-65
2022/07/22 08:21:03;;;;;;;5.82;5.22;;;;;;;-141.48;100.00;69781.59;4952748;29;20031;-66
2022/07/22 08:23:34;;;;;;;6.05;5.50;;;;;;;-141.48;100.00;69781.59;4968598;29;20062;-66
2022/07/22 08:26:04;;;;;;;5.07;4.70;;;;;;;-141.48;100.00;69781.59;4968607;29;20541;-64
2022/07/22 08:28:35;;;;;;;4.72;4.20;;;;;;;-141.48;100.00;69781.59;4952530;29;20117;-65
2022/07/22 08:31:05;;;;;;;4.28;4.05;;;;;;;-141.48;100.00;69781.59;4968885;29;20057;-65
2022/07/22 08:33:36;;;;;;;3.75;3.55;;;;;;;-141.48;100.00;69781.59;4968410;29;20099;-65
2022/07/22 08:36:06;;;;;;;5.47;5.03;;;;;;;-141.48;100.00;69781.59;4968567;29;20426;-65
2022/07/22 08:38:37;;;;;;;5.57;5.05;;;;;;;-141.48;100.00;69781.59;4968770;29;20059;-66
2022/07/22 08:41:08;;;;;;;4.32;4.13;;;;;;;-141.48;100.00;69781.59;4971650;29;20494;-64
2022/07/22 08:43:42;;;;;;;4.75;4.55;;;;;;;-141.48;100.00;69781.59;4972508;29;20113;-66
2022/07/22 08:46:12;;;;;;;8.00;5.65;;;;;;;-141.48;100.00;69781.59;4973335;29;20035;-66
2022/07/22 08:48:44;;;;;;;5.40;4.88;;;;;;;-141.48;100.00;69781.59;4972253;29;20031;-66
2022/07/22 08:51:14;;;;;;;6.22;5.82;;;;;;;-141.48;100.00;69781.59;4971851;29;20023;-66
2022/07/22 08:53:45;;;;;;;4.13;3.83;;;;;;;-141.48;100.00;69781.59;4972188;29;20037;-66
2022/07/22 08:56:15;;;;;;;6.35;5.90;;;;;;;-141.48;100.00;69781.59;4971995;29;20491;-65
2022/07/22 08:58:46;;;;;;;7.22;4.43;;;;;;;-141.48;100.00;69781.59;4972099;29;20043;-66
2022/07/22 09:01:17;;;;;;;5.35;4.93;;;;;;;-141.48;100.00;69781.59;4956101;29;20023;-64
2022/07/22 09:03:49;;;;;;;8.60;5.05;;;;;;;-141.48;100.00;69781.59;4971689;29;20096;-65
2022/07/22 09:06:21;;;;;;;6.50;5.22;;;;;;;-141.48;100.00;69781.59;4972178;29;20102;-65
2022/07/22 09:08:56;;;;;;;4.72;4.43;;;;;;;-141.48;100.00;69781.59;4972436;29;20035;-65
2022/07/22 09:11:29;;;;;;;7.32;6.40;;;;;;;-141.48;100.00;69781.59;4972076;29;20114;-63
2022/07/22 09:14:01;;;;;;;4.80;4.60;;;;;;;-141.48;100.00;69781.59;4971432;29;20461;-66
2022/07/22 09:16:43;;;;;;;5.07;4.70;;;;;;;-141.48;100.00;69781.59;4955473;29;20030;-66
2022/07/22 09:19:14;;;;;;;6.60;6.07;;;;;;;-141.48;100.00;69781.59;4971852;29;20045;-66
2022/07/22 09:21:49;;;;;;;5.80;5.30;;;;;;;-141.48;100.00;69781.59;4971544;29;20469;-65
2022/07/22 09:24:31;;;;;;;5.28;4.68;;;;;;;-141.48;100.00;69781.59;4971291;29;20042;-66
2022/07/22 09:27:01;;;;;;;5.45;5.13;;;;;;;-141.48;100.00;69781.59;4955430;29;20026;-66
2022/07/22 09:29:32;;;;;;;5.85;5.35;;;;;;;-141.48;100.00;69781.59;4971607;29;20037;-63
2022/07/22 09:32:03;;;;;;;5.28;4.82;;;;;;;-141.48;100.00;69781.59;4971728;29;20368;-65
2022/07/22 09:34:34;;;;;;;5.05;4.75;;;;;;;-141.48;100.00;69781.59;4971213;29;20408;-66
2022/07/22 09:37:04;;;;;;;5.18;4.88;;;;;;;-141.48;100.00;69781.59;4971561;29;20041;-64
2022/07/22 09:39:35;;;;;;;7.15;5.45;;;;;;;-141.48;100.00;69781.59;4971747;29;20033;-65
2022/07/22 09:42:07;;;;;;;6.97;5.88;;;;;;;-141.48;100.00;69781.59;4971817;29;20035;-65
2022/07/22 09:44:37;;;;;;;5.82;4.93;;;;;;;-141.48;100.00;69781.59;4954895;29;20038;-66
2022/07/22 09:47:27;;;;;;;4.80;4.40;;;;;;;-141.48;100.00;69781.59;4971348;29;20023;-65
2022/07/22 09:49:58;;;;;;;5.88;4.55;;;;;;;-141.48;100.00;69781.59;4971276;29;20042;-65
2022/07/22 09:52:28;;;;;;;4.70;4.32;;;;;;;-141.48;100.00;69781.59;4970652;29;20039;-66
2022/07/22 09:55:00;;;;;;;6.00;5.60;;;;;;;-141.48;100.00;69781.59;4955042;29;20130;-66
2022/07/22 09:57:31;;;;;;;4.35;3.92;;;;;;;-141.48;100.00;69781.59;4971255;29;20035;-66
2022/07/22 10:00:05;;;;;;;4.88;4.20;;;;;;;-141.48;100.00;69781.59;4971123;29;20399;-68
2022/07/22 10:02:53;;;;;;;4.50;4.15;;;;;;;-141.48;100.00;69781.59;4971240;29;20105;-65
2022/07/22 10:05:26;;;;;;;9.48;5.28;;;;;;;-141.48;100.00;69781.59;4954491;29;20026;-66
2022/07/22 10:07:59;;;;;;;6.05;5.55;;;;;;;-141.48;100.00;69781.59;4971000;29;20497;-66
2022/07/22 10:10:31;;;;;;;10.40;5.22;;;;;;;-141.48;100.00;69781.59;4970907;29;20103;-66
2022/07/22 10:13:04;;;;;;;5.10;4.90;;;;;;;-141.48;100.00;69781.59;4954386;29;20027;-66
2022/07/22 10:15:35;;;;;;;9.80;5.75;;;;;;;-141.48;100.00;69781.59;4970568;29;20039;-63
2022/07/22 10:18:13;;;;;;;5.05;4.72;;;;;;;-141.48;100.00;69781.59;4970724;29;20031;-66
2022/07/22 10:20:44;;;;;;;5.18;4.80;;;;;;;-141.48;100.00;69781.59;4970718;29;20041;-67
2022/07/22 10:23:14;;;;;;;5.82;4.38;;;;;;;-141.48;100.00;69781.59;4970689;29;20031;-67
2022/07/22 10:25:56;;;;;;;3.65;3.42;;;;;;;-141.48;100.00;69781.59;4970360;29;20102;-65
2022/07/22 10:28:30;;;;;;;6.50;5.95;;;;;;;-141.48;100.00;69781.59;4971163;29;20425;-66
2022/07/22 10:31:16;;;;;;;12.50;6.80;;;;;;;-141.48;100.00;69781.59;4970526;29;20035;-66
2022/07/22 10:33:52;;;;;;;6.28;5.85;;;;;;;-141.48;100.00;69781.59;4970022;29;20041;-65
2022/07/22 10:36:49;;;;;;;4.95;4.65;;;;;;;-141.48;100.00;69781.59;4970147;29;20031;-65
2022/07/22 10:39:20;;;;;;;4.75;4.55;;;;;;;-141.48;100.00;69781.59;4966575;29;20508;-66
2022/07/22 10:41:52;;;;;;;6.10;5.63;;;;;;;-141.48;100.00;69781.59;4970431;29;20030;-66
2022/07/22 10:44:48;;;;;;;5.65;5.25;;;;;;;-141.48;100.00;69781.59;4953744;29;20023;-64
2022/07/22 10:47:54;;;;;;;6.47;5.43;;;;;;;-141.48;100.00;69781.59;4970205;29;20161;-65
2022/07/22 10:50:39;;;;;;;5.30;4.72;;;;;;;-141.48;100.00;69781.59;4966289;24;20514;-63
2022/07/22 10:53:10;;;;;;;6.05;5.75;;;;;;;-141.48;100.00;69781.59;4970077;29;20110;-64
2022/07/22 10:56:11;;;;;;;3.55;3.45;;;;;;;-141.48;100.00;69781.59;4969571;29;20118;-63
2022/07/22 10:58:44;;;;;;;5.43;4.88;;;;;;;-141.48;100.00;69781.59;4951617;30;20057;-63
2022/07/22 11:01:19;;;;;;;4.82;4.43;;;;;;;-141.48;100.00;69781.59;4951573;30;20031;-63
2022/07/22 11:03:50;;;;;;;4.38;4.07;;;;;;;-141.48;100.00;69781.59;4964880;29;20050;-63
2022/07/22 11:06:30;;;;;;;4.95;4.65;;;;;;;-141.48;100.00;69781.59;4951417;30;20031;-63
2022/07/22 11:09:05;;;;;;;5.28;4.88;;;;;;;-141.48;100.00;69781.59;4951260;30;20055;-63
2022/07/22 11:11:49;;;;;;;5.22;3.97;;;;;;;-141.48;100.00;69781.59;4951129;30;20039;-63
2022/07/22 11:14:27;;;;;;;5.03;4.63;;;;;;;-141.48;100.00;69781.59;4951096;30;20055;-63
2022/07/22 11:17:08;;;;;;;4.93;4.60;;;;;;;-141.48;100.00;69781.59;4951098;30;20035;-63
2022/07/22 11:19:39;;;;;;;5.10;4.80;;;;;;;-141.48;100.00;69781.59;4951008;30;20031;-63
2022/07/22 11:22:12;;;;;;;6.72;4.70;;;;;;;-141.48;100.00;69781.59;4935101;30;20053;-63
2022/07/22 11:24:48;;;;;;;5.13;4.68;;;;;;;-141.48;100.00;69781.59;4950499;30;20419;-63
2022/07/22 11:27:22;;;;;;;5.03;4.63;;;;;;;-141.48;100.00;69781.59;4950870;30;20497;-63